sensor_id;sensor_type;location;lat;lon;timestamp;P1;durP1;ratioP1;P2;durP2;ratioP2
69822;SDS011;57119;52.516;13.508;2022-11-30T00:00:12;57.10;;;27.63;;
69822;SDS011;57119;52.516;13.508;2022-11-30T00:02:38;64.37;;;28.97;;
69822;SDS011;57119;52.516;13.508;2022-11-30T00:05:03;61.45;;;27.00;;
69822;SDS011;57119;52.516;13.508;2022-11-30T00:07:29;56.27;;;27.13;;
69822;SDS011;57119;52.516;13.508;2022-11-30T00:09:54;59.53;;;26.67;;
69822;SDS011;57119;52.516;13.508;2022-11-30T00:12:20;57.92;;;26.88;;
69822;SDS011;57119;52.516;13.508;2022-11-30T00:14:45;63.33;;;28.80;;
69822;SDS011;57119;52.516;13.508;2022-11-30T00:17:10;60.77;;;26.10;;
69822;SDS011;57119;52.516;13.508;2022-11-30T00:19:36;61.67;;;27.80;;
69822;SDS011;57119;52.516;13.508;2022-11-30T00:22:01;61.77;;;28.27;;
69822;SDS011;57119;52.516;13.508;2022-11-30T00:24:26;59.20;;;27.30;;
69822;SDS011;57119;52.516;13.508;2022-11-30T00:26:52;59.20;;;27.33;;
69822;SDS011;57119;52.516;13.508;2022-11-30T00:29:17;61.50;;;27.70;;
69822;SDS011;57119;52.516;13.508;2022-11-30T00:31:43;62.40;;;28.37;;
69822;SDS011;57119;52.516;13.508;2022-11-30T00:34:08;61.40;;;28.13;;
69822;SDS011;57119;52.516;13.508;2022-11-30T00:36:33;67.17;;;28.17;;
69822;SDS011;57119;52.516;13.508;2022-11-30T00:38:59;62.20;;;27.97;;
69822;SDS011;57119;52.516;13.508;2022-11-30T00:41:24;59.73;;;28.23;;
69822;SDS011;57119;52.516;13.508;2022-11-30T00:43:50;62.77;;;28.13;;
69822;SDS011;57119;52.516;13.508;2022-11-30T00:46:15;62.07;;;28.93;;
69822;SDS011;57119;52.516;13.508;2022-11-30T00:48:41;65.95;;;28.00;;
69822;SDS011;57119;52.516;13.508;2022-11-30T00:51:07;66.83;;;28.40;;
69822;SDS011;57119;52.516;13.508;2022-11-30T00:53:33;62.28;;;28.67;;
69822;SDS011;57119;52.516;13.508;2022-11-30T00:55:59;63.17;;;28.27;;
69822;SDS011;57119;52.516;13.508;2022-11-30T00:58:24;65.30;;;29.50;;
69822;SDS011;57119;52.516;13.508;2022-11-30T01:00:49;66.00;;;27.60;;
69822;SDS011;57119;52.516;13.508;2022-11-30T01:03:15;60.50;;;28.40;;
69822;SDS011;57119;52.516;13.508;2022-11-30T01:05:41;64.87;;;28.47;;
69822;SDS011;57119;52.516;13.508;2022-11-30T01:08:09;65.53;;;29.33;;
69822;SDS011;57119;52.516;13.508;2022-11-30T01:10:37;65.20;;;28.50;;
69822;SDS011;57119;52.516;13.508;2022-11-30T01:13:03;63.40;;;28.45;;
69822;SDS011;57119;52.516;13.508;2022-11-30T01:15:29;65.95;;;29.08;;
69822;SDS011;57119;52.516;13.508;2022-11-30T01:17:55;62.87;;;29.50;;
69822;SDS011;57119;52.516;13.508;2022-11-30T01:20:23;64.13;;;27.60;;
69822;SDS011;57119;52.516;13.508;2022-11-30T01:22:49;67.93;;;29.77;;
69822;SDS011;57119;52.516;13.508;2022-11-30T01:25:14;69.07;;;29.67;;
69822;SDS011;57119;52.516;13.508;2022-11-30T01:27:39;67.20;;;28.92;;
69822;SDS011;57119;52.516;13.508;2022-11-30T01:30:05;62.03;;;29.83;;
69822;SDS011;57119;52.516;13.508;2022-11-30T01:32:31;64.17;;;28.97;;
69822;SDS011;57119;52.516;13.508;2022-11-30T01:34:56;65.55;;;30.30;;
69822;SDS011;57119;52.516;13.508;2022-11-30T01:37:21;65.67;;;29.07;;
69822;SDS011;57119;52.516;13.508;2022-11-30T01:39:47;62.53;;;29.67;;
69822;SDS011;57119;52.516;13.508;2022-11-30T01:42:16;64.70;;;28.83;;
69822;SDS011;57119;52.516;13.508;2022-11-30T01:44:59;61.40;;;27.67;;
69822;SDS011;57119;52.516;13.508;2022-11-30T01:47:29;62.03;;;27.58;;
69822;SDS011;57119;52.516;13.508;2022-11-30T01:50:00;61.90;;;27.17;;
69822;SDS011;57119;52.516;13.508;2022-11-30T01:52:50;65.65;;;29.50;;
69822;SDS011;57119;52.516;13.508;2022-11-30T02:00:19;63.60;;;28.85;;
69822;SDS011;57119;52.516;13.508;2022-11-30T02:05:32;64.13;;;28.53;;
69822;SDS011;57119;52.516;13.508;2022-11-30T02:08:00;64.78;;;29.65;;
69822;SDS011;57119;52.516;13.508;2022-11-30T02:10:27;62.27;;;28.07;;
69822;SDS011;57119;52.516;13.508;2022-11-30T02:15:47;62.55;;;27.98;;
69822;SDS011;57119;52.516;13.508;2022-11-30T02:30:28;66.13;;;27.90;;
69822;SDS011;57119;52.516;13.508;2022-11-30T02:32:58;61.92;;;28.90;;
69822;SDS011;57119;52.516;13.508;2022-11-30T02:35:30;63.58;;;28.60;;
69822;SDS011;57119;52.516;13.508;2022-11-30T02:37:58;63.13;;;28.33;;
69822;SDS011;57119;52.516;13.508;2022-11-30T02:40:25;65.57;;;29.08;;
69822;SDS011;57119;52.516;13.508;2022-11-30T02:42:51;66.97;;;29.27;;
69822;SDS011;57119;52.516;13.508;2022-11-30T02:45:30;58.20;;;27.00;;
69822;SDS011;57119;52.516;13.508;2022-11-30T02:47:59;65.85;;;29.50;;
69822;SDS011;57119;52.516;13.508;2022-11-30T02:50:39;61.65;;;27.67;;
69822;SDS011;57119;52.516;13.508;2022-11-30T02:53:08;62.22;;;27.10;;
69822;SDS011;57119;52.516;13.508;2022-11-30T02:55:34;64.83;;;30.13;;
69822;SDS011;57119;52.516;13.508;2022-11-30T02:57:59;63.97;;;28.63;;
69822;SDS011;57119;52.516;13.508;2022-11-30T03:00:25;61.23;;;27.80;;
69822;SDS011;57119;52.516;13.508;2022-11-30T03:02:50;65.28;;;28.15;;
69822;SDS011;57119;52.516;13.508;2022-11-30T03:05:16;65.03;;;28.60;;
69822;SDS011;57119;52.516;13.508;2022-11-30T03:07:41;63.40;;;29.40;;
69822;SDS011;57119;52.516;13.508;2022-11-30T03:10:07;66.23;;;29.13;;
69822;SDS011;57119;52.516;13.508;2022-11-30T03:12:32;63.83;;;29.45;;
69822;SDS011;57119;52.516;13.508;2022-11-30T03:14:58;61.93;;;29.20;;
69822;SDS011;57119;52.516;13.508;2022-11-30T03:17:23;62.60;;;30.07;;
69822;SDS011;57119;52.516;13.508;2022-11-30T03:19:49;65.23;;;29.93;;
69822;SDS011;57119;52.516;13.508;2022-11-30T03:22:14;63.78;;;28.60;;
69822;SDS011;57119;52.516;13.508;2022-11-30T03:24:39;66.63;;;30.50;;
69822;SDS011;57119;52.516;13.508;2022-11-30T03:27:05;65.80;;;28.13;;
69822;SDS011;57119;52.516;13.508;2022-11-30T03:29:31;69.17;;;30.33;;
69822;SDS011;57119;52.516;13.508;2022-11-30T03:31:56;66.47;;;29.70;;
69822;SDS011;57119;52.516;13.508;2022-11-30T03:34:35;65.07;;;29.90;;
69822;SDS011;57119;52.516;13.508;2022-11-30T03:37:01;62.47;;;27.90;;
69822;SDS011;57119;52.516;13.508;2022-11-30T03:39:26;65.97;;;28.10;;
69822;SDS011;57119;52.516;13.508;2022-11-30T03:41:51;63.70;;;28.10;;
69822;SDS011;57119;52.516;13.508;2022-11-30T03:44:17;62.67;;;28.50;;
69822;SDS011;57119;52.516;13.508;2022-11-30T03:46:43;60.08;;;28.00;;
69822;SDS011;57119;52.516;13.508;2022-11-30T03:49:08;64.70;;;28.23;;
69822;SDS011;57119;52.516;13.508;2022-11-30T03:51:33;64.70;;;29.37;;
69822;SDS011;57119;52.516;13.508;2022-11-30T03:53:59;61.53;;;27.77;;
69822;SDS011;57119;52.516;13.508;2022-11-30T03:56:25;62.30;;;27.90;;
69822;SDS011;57119;52.516;13.508;2022-11-30T03:58:50;66.53;;;28.57;;
69822;SDS011;57119;52.516;13.508;2022-11-30T04:01:17;64.50;;;28.63;;
69822;SDS011;57119;52.516;13.508;2022-11-30T04:03:48;71.18;;;31.23;;
69822;SDS011;57119;52.516;13.508;2022-11-30T04:06:14;66.53;;;30.07;;
69822;SDS011;57119;52.516;13.508;2022-11-30T04:08:40;65.18;;;28.35;;
69822;SDS011;57119;52.516;13.508;2022-11-30T04:11:06;63.67;;;28.37;;
69822;SDS011;57119;52.516;13.508;2022-11-30T04:13:33;63.67;;;28.87;;
69822;SDS011;57119;52.516;13.508;2022-11-30T04:15:59;71.50;;;29.13;;
69822;SDS011;57119;52.516;13.508;2022-11-30T04:18:25;69.22;;;30.60;;
69822;SDS011;57119;52.516;13.508;2022-11-30T04:20:53;64.73;;;29.40;;
69822;SDS011;57119;52.516;13.508;2022-11-30T04:23:21;63.75;;;29.38;;
69822;SDS011;57119;52.516;13.508;2022-11-30T04:25:47;64.60;;;30.02;;
69822;SDS011;57119;52.516;13.508;2022-11-30T04:28:13;68.60;;;29.92;;
69822;SDS011;57119;52.516;13.508;2022-11-30T04:30:40;68.83;;;29.50;;
69822;SDS011;57119;52.516;13.508;2022-11-30T04:33:06;65.30;;;27.98;;
69822;SDS011;57119;52.516;13.508;2022-11-30T04:35:32;69.27;;;29.73;;
69822;SDS011;57119;52.516;13.508;2022-11-30T04:37:58;67.90;;;30.85;;
69822;SDS011;57119;52.516;13.508;2022-11-30T04:40:24;65.10;;;29.65;;
69822;SDS011;57119;52.516;13.508;2022-11-30T04:42:50;71.17;;;29.13;;
69822;SDS011;57119;52.516;13.508;2022-11-30T04:45:15;65.38;;;29.08;;
69822;SDS011;57119;52.516;13.508;2022-11-30T04:47:41;71.00;;;29.73;;
69822;SDS011;57119;52.516;13.508;2022-11-30T04:50:07;62.07;;;28.50;;
69822;SDS011;57119;52.516;13.508;2022-11-30T04:52:33;66.95;;;29.75;;
69822;SDS011;57119;52.516;13.508;2022-11-30T04:54:58;66.10;;;29.27;;
69822;SDS011;57119;52.516;13.508;2022-11-30T04:57:24;67.10;;;29.23;;
69822;SDS011;57119;52.516;13.508;2022-11-30T04:59:49;70.30;;;30.07;;
69822;SDS011;57119;52.516;13.508;2022-11-30T05:02:15;67.30;;;30.00;;
69822;SDS011;57119;52.516;13.508;2022-11-30T05:04:41;66.22;;;31.05;;
69822;SDS011;57119;52.516;13.508;2022-11-30T05:07:06;68.17;;;29.07;;
69822;SDS011;57119;52.516;13.508;2022-11-30T05:09:32;67.20;;;30.73;;
69822;SDS011;57119;52.516;13.508;2022-11-30T05:11:57;70.90;;;30.27;;
69822;SDS011;57119;52.516;13.508;2022-11-30T05:14:23;65.60;;;29.03;;
69822;SDS011;57119;52.516;13.508;2022-11-30T05:16:48;66.40;;;29.33;;
69822;SDS011;57119;52.516;13.508;2022-11-30T05:19:13;67.45;;;30.40;;
69822;SDS011;57119;52.516;13.508;2022-11-30T05:21:39;66.97;;;30.93;;
69822;SDS011;57119;52.516;13.508;2022-11-30T05:24:05;71.63;;;31.45;;
69822;SDS011;57119;52.516;13.508;2022-11-30T05:26:31;64.73;;;29.77;;
69822;SDS011;57119;52.516;13.508;2022-11-30T05:28:57;68.07;;;29.10;;
69822;SDS011;57119;52.516;13.508;2022-11-30T05:31:22;66.40;;;30.27;;
69822;SDS011;57119;52.516;13.508;2022-11-30T05:33:51;75.00;;;30.80;;
69822;SDS011;57119;52.516;13.508;2022-11-30T05:36:18;68.07;;;29.63;;
69822;SDS011;57119;52.516;13.508;2022-11-30T05:38:44;67.63;;;29.20;;
69822;SDS011;57119;52.516;13.508;2022-11-30T05:41:10;72.82;;;30.98;;
69822;SDS011;57119;52.516;13.508;2022-11-30T05:43:36;63.27;;;30.23;;
69822;SDS011;57119;52.516;13.508;2022-11-30T05:46:01;68.30;;;30.10;;
69822;SDS011;57119;52.516;13.508;2022-11-30T05:48:28;67.65;;;29.80;;
69822;SDS011;57119;52.516;13.508;2022-11-30T05:50:54;73.07;;;30.02;;
69822;SDS011;57119;52.516;13.508;2022-11-30T05:53:20;67.13;;;31.00;;
69822;SDS011;57119;52.516;13.508;2022-11-30T05:55:45;64.03;;;28.02;;
69822;SDS011;57119;52.516;13.508;2022-11-30T05:58:11;73.10;;;30.50;;
69822;SDS011;57119;52.516;13.508;2022-11-30T06:00:36;68.13;;;29.13;;
69822;SDS011;57119;52.516;13.508;2022-11-30T06:03:01;71.77;;;30.50;;
69822;SDS011;57119;52.516;13.508;2022-11-30T06:05:27;66.00;;;30.40;;
69822;SDS011;57119;52.516;13.508;2022-11-30T06:07:52;65.45;;;29.17;;
69822;SDS011;57119;52.516;13.508;2022-11-30T06:10:18;62.87;;;27.37;;
69822;SDS011;57119;52.516;13.508;2022-11-30T06:12:44;69.50;;;30.30;;
69822;SDS011;57119;52.516;13.508;2022-11-30T06:15:10;65.70;;;29.50;;
69822;SDS011;57119;52.516;13.508;2022-11-30T06:17:36;68.28;;;29.48;;
69822;SDS011;57119;52.516;13.508;2022-11-30T06:20:02;67.32;;;29.23;;
69822;SDS011;57119;52.516;13.508;2022-11-30T06:22:29;68.75;;;29.35;;
69822;SDS011;57119;52.516;13.508;2022-11-30T06:24:54;62.07;;;28.80;;
69822;SDS011;57119;52.516;13.508;2022-11-30T06:27:20;59.40;;;27.17;;
69822;SDS011;57119;52.516;13.508;2022-11-30T06:29:45;68.57;;;29.80;;
69822;SDS011;57119;52.516;13.508;2022-11-30T06:32:11;62.63;;;28.02;;
69822;SDS011;57119;52.516;13.508;2022-11-30T06:34:36;64.77;;;27.73;;
69822;SDS011;57119;52.516;13.508;2022-11-30T06:37:01;69.20;;;29.23;;
69822;SDS011;57119;52.516;13.508;2022-11-30T06:39:27;61.10;;;27.97;;
69822;SDS011;57119;52.516;13.508;2022-11-30T06:41:52;65.93;;;29.80;;
69822;SDS011;57119;52.516;13.508;2022-11-30T06:44:17;65.00;;;28.60;;
69822;SDS011;57119;52.516;13.508;2022-11-30T06:46:43;65.00;;;27.80;;
69822;SDS011;57119;52.516;13.508;2022-11-30T06:49:08;63.40;;;27.80;;
69822;SDS011;57119;52.516;13.508;2022-11-30T06:51:33;62.63;;;28.67;;
69822;SDS011;57119;52.516;13.508;2022-11-30T06:53:59;64.57;;;29.33;;
69822;SDS011;57119;52.516;13.508;2022-11-30T06:56:24;68.67;;;28.90;;
69822;SDS011;57119;52.516;13.508;2022-11-30T06:58:49;66.40;;;29.30;;
69822;SDS011;57119;52.516;13.508;2022-11-30T07:01:16;61.60;;;27.88;;
69822;SDS011;57119;52.516;13.508;2022-11-30T07:03:41;59.57;;;27.87;;
69822;SDS011;57119;52.516;13.508;2022-11-30T07:06:08;70.00;;;29.83;;
69822;SDS011;57119;52.516;13.508;2022-11-30T07:08:35;67.15;;;28.40;;
69822;SDS011;57119;52.516;13.508;2022-11-30T07:11:00;69.97;;;30.07;;
69822;SDS011;57119;52.516;13.508;2022-11-30T07:13:26;65.17;;;27.17;;
69822;SDS011;57119;52.516;13.508;2022-11-30T07:15:51;62.65;;;27.85;;
69822;SDS011;57119;52.516;13.508;2022-11-30T07:18:17;58.60;;;27.63;;
69822;SDS011;57119;52.516;13.508;2022-11-30T07:20:42;61.17;;;28.10;;
69822;SDS011;57119;52.516;13.508;2022-11-30T07:23:08;63.07;;;27.03;;
69822;SDS011;57119;52.516;13.508;2022-11-30T07:25:52;62.20;;;28.80;;
69822;SDS011;57119;52.516;13.508;2022-11-30T07:28:30;57.25;;;26.77;;
69822;SDS011;57119;52.516;13.508;2022-11-30T07:30:56;62.30;;;25.95;;
69822;SDS011;57119;52.516;13.508;2022-11-30T07:33:21;63.73;;;26.50;;
69822;SDS011;57119;52.516;13.508;2022-11-30T07:35:46;59.30;;;28.30;;
69822;SDS011;57119;52.516;13.508;2022-11-30T07:38:12;64.50;;;26.80;;
69822;SDS011;57119;52.516;13.508;2022-11-30T07:40:37;60.90;;;27.20;;
69822;SDS011;57119;52.516;13.508;2022-11-30T07:43:02;58.75;;;27.05;;
69822;SDS011;57119;52.516;13.508;2022-11-30T07:45:28;66.73;;;30.83;;
69822;SDS011;57119;52.516;13.508;2022-11-30T07:47:53;62.53;;;27.27;;
69822;SDS011;57119;52.516;13.508;2022-11-30T07:50:19;62.63;;;29.07;;
69822;SDS011;57119;52.516;13.508;2022-11-30T07:52:44;66.47;;;29.70;;
69822;SDS011;57119;52.516;13.508;2022-11-30T07:55:09;61.97;;;27.30;;
69822;SDS011;57119;52.516;13.508;2022-11-30T07:57:35;64.28;;;28.08;;
69822;SDS011;57119;52.516;13.508;2022-11-30T08:00:00;61.63;;;27.67;;
69822;SDS011;57119;52.516;13.508;2022-11-30T08:02:26;66.70;;;28.37;;
69822;SDS011;57119;52.516;13.508;2022-11-30T08:04:51;64.03;;;27.63;;
69822;SDS011;57119;52.516;13.508;2022-11-30T08:07:17;62.88;;;27.52;;
69822;SDS011;57119;52.516;13.508;2022-11-30T08:09:42;62.93;;;28.63;;
69822;SDS011;57119;52.516;13.508;2022-11-30T08:12:09;63.50;;;27.70;;
69822;SDS011;57119;52.516;13.508;2022-11-30T08:14:34;64.85;;;28.92;;
69822;SDS011;57119;52.516;13.508;2022-11-30T08:17:00;60.13;;;26.97;;
69822;SDS011;57119;52.516;13.508;2022-11-30T08:19:25;57.17;;;27.90;;
69822;SDS011;57119;52.516;13.508;2022-11-30T08:21:50;67.47;;;31.53;;
69822;SDS011;57119;52.516;13.508;2022-11-30T08:24:16;65.03;;;28.52;;
69822;SDS011;57119;52.516;13.508;2022-11-30T08:26:41;64.40;;;28.63;;
69822;SDS011;57119;52.516;13.508;2022-11-30T08:29:07;66.77;;;29.37;;
69822;SDS011;57119;52.516;13.508;2022-11-30T08:31:35;60.00;;;28.42;;
69822;SDS011;57119;52.516;13.508;2022-11-30T08:34:02;61.53;;;27.38;;
69822;SDS011;57119;52.516;13.508;2022-11-30T08:36:32;59.23;;;27.87;;
69822;SDS011;57119;52.516;13.508;2022-11-30T08:38:58;57.58;;;26.30;;
69822;SDS011;57119;52.516;13.508;2022-11-30T08:41:25;60.80;;;29.77;;
69822;SDS011;57119;52.516;13.508;2022-11-30T08:43:51;57.30;;;26.48;;
69822;SDS011;57119;52.516;13.508;2022-11-30T08:46:18;62.33;;;28.85;;
69822;SDS011;57119;52.516;13.508;2022-11-30T08:48:45;60.73;;;26.90;;
69822;SDS011;57119;52.516;13.508;2022-11-30T08:51:11;59.80;;;28.38;;
69822;SDS011;57119;52.516;13.508;2022-11-30T08:53:38;60.50;;;26.10;;
69822;SDS011;57119;52.516;13.508;2022-11-30T08:56:05;62.60;;;28.13;;
69822;SDS011;57119;52.516;13.508;2022-11-30T08:58:33;62.83;;;27.92;;
69822;SDS011;57119;52.516;13.508;2022-11-30T09:01:06;60.33;;;27.93;;
69822;SDS011;57119;52.516;13.508;2022-11-30T09:03:33;59.70;;;26.75;;
69822;SDS011;57119;52.516;13.508;2022-11-30T09:08:30;60.33;;;27.73;;
69822;SDS011;57119;52.516;13.508;2022-11-30T09:10:56;60.28;;;27.08;;
69822;SDS011;57119;52.516;13.508;2022-11-30T09:13:21;58.63;;;27.13;;
69822;SDS011;57119;52.516;13.508;2022-11-30T09:15:52;61.73;;;26.47;;
69822;SDS011;57119;52.516;13.508;2022-11-30T09:18:19;60.05;;;28.02;;
69822;SDS011;57119;52.516;13.508;2022-11-30T09:20:44;59.77;;;28.30;;
69822;SDS011;57119;52.516;13.508;2022-11-30T09:23:09;62.80;;;27.97;;
69822;SDS011;57119;52.516;13.508;2022-11-30T09:25:35;57.83;;;27.03;;
69822;SDS011;57119;52.516;13.508;2022-11-30T09:28:00;61.38;;;28.02;;
69822;SDS011;57119;52.516;13.508;2022-11-30T09:30:25;61.90;;;28.07;;
69822;SDS011;57119;52.516;13.508;2022-11-30T09:32:51;59.50;;;25.90;;
69822;SDS011;57119;52.516;13.508;2022-11-30T09:35:16;58.83;;;27.63;;
69822;SDS011;57119;52.516;13.508;2022-11-30T09:37:42;61.60;;;27.77;;
69822;SDS011;57119;52.516;13.508;2022-11-30T09:40:07;59.43;;;27.13;;
69822;SDS011;57119;52.516;13.508;2022-11-30T09:45:14;60.13;;;27.50;;
69822;SDS011;57119;52.516;13.508;2022-11-30T09:50:26;57.40;;;25.48;;
69822;SDS011;57119;52.516;13.508;2022-11-30T09:52:59;60.20;;;27.17;;
69822;SDS011;57119;52.516;13.508;2022-11-30T09:55:29;58.70;;;26.80;;
69822;SDS011;57119;52.516;13.508;2022-11-30T09:57:59;56.22;;;27.10;;
69822;SDS011;57119;52.516;13.508;2022-11-30T10:00:26;63.13;;;28.95;;
69822;SDS011;57119;52.516;13.508;2022-11-30T10:02:54;58.63;;;26.60;;
69822;SDS011;57119;52.516;13.508;2022-11-30T10:05:23;54.80;;;25.08;;
69822;SDS011;57119;52.516;13.508;2022-11-30T10:11:02;60.35;;;27.08;;
69822;SDS011;57119;52.516;13.508;2022-11-30T10:26:40;56.13;;;25.90;;
69822;SDS011;57119;52.516;13.508;2022-11-30T10:32:12;52.95;;;25.40;;
69822;SDS011;57119;52.516;13.508;2022-11-30T10:34:42;55.10;;;25.23;;
69822;SDS011;57119;52.516;13.508;2022-11-30T10:37:53;55.10;;;27.48;;
69822;SDS011;57119;52.516;13.508;2022-11-30T10:40:02;54.63;;;27.07;;
69822;SDS011;57119;52.516;13.508;2022-11-30T10:42:36;56.55;;;26.17;;
69822;SDS011;57119;52.516;13.508;2022-11-30T10:45:12;51.97;;;25.70;;
69822;SDS011;57119;52.516;13.508;2022-11-30T10:47:45;53.10;;;25.23;;
69822;SDS011;57119;52.516;13.508;2022-11-30T10:50:15;55.97;;;27.23;;
69822;SDS011;57119;52.516;13.508;2022-11-30T10:52:50;53.40;;;24.87;;
69822;SDS011;57119;52.516;13.508;2022-11-30T10:55:18;53.90;;;24.63;;
69822;SDS011;57119;52.516;13.508;2022-11-30T10:57:47;54.55;;;25.08;;
69822;SDS011;57119;52.516;13.508;2022-11-30T11:00:15;57.45;;;25.55;;
69822;SDS011;57119;52.516;13.508;2022-11-30T11:02:48;52.72;;;26.30;;
69822;SDS011;57119;52.516;13.508;2022-11-30T11:05:17;56.70;;;25.57;;
69822;SDS011;57119;52.516;13.508;2022-11-30T11:10:14;50.67;;;24.83;;
69822;SDS011;57119;52.516;13.508;2022-11-30T11:12:47;53.55;;;25.48;;
69822;SDS011;57119;52.516;13.508;2022-11-30T11:17:45;60.38;;;26.13;;
69822;SDS011;57119;52.516;13.508;2022-11-30T11:26:15;57.08;;;26.20;;
69822;SDS011;57119;52.516;13.508;2022-11-30T11:28:45;56.60;;;26.25;;
69822;SDS011;57119;52.516;13.508;2022-11-30T11:31:34;55.72;;;25.33;;
69822;SDS011;57119;52.516;13.508;2022-11-30T11:34:03;53.93;;;25.47;;
69822;SDS011;57119;52.516;13.508;2022-11-30T11:36:30;54.78;;;26.75;;
69822;SDS011;57119;52.516;13.508;2022-11-30T11:38:57;52.38;;;25.10;;
69822;SDS011;57119;52.516;13.508;2022-11-30T11:41:30;52.33;;;25.00;;
69822;SDS011;57119;52.516;13.508;2022-11-30T11:49:20;52.00;;;25.17;;
69822;SDS011;57119;52.516;13.508;2022-11-30T11:51:49;54.38;;;25.40;;
69822;SDS011;57119;52.516;13.508;2022-11-30T11:54:26;59.15;;;27.38;;
69822;SDS011;57119;52.516;13.508;2022-11-30T11:56:57;53.80;;;25.27;;
69822;SDS011;57119;52.516;13.508;2022-11-30T12:02:26;50.45;;;25.30;;
69822;SDS011;57119;52.516;13.508;2022-11-30T12:05:00;51.78;;;25.52;;
69822;SDS011;57119;52.516;13.508;2022-11-30T12:11:14;56.13;;;27.50;;
69822;SDS011;57119;52.516;13.508;2022-11-30T12:13:14;54.43;;;25.77;;
69822;SDS011;57119;52.516;13.508;2022-11-30T12:18:22;62.50;;;30.23;;
69822;SDS011;57119;52.516;13.508;2022-11-30T12:20:55;60.92;;;28.92;;
69822;SDS011;57119;52.516;13.508;2022-11-30T12:25:59;61.93;;;29.20;;
69822;SDS011;57119;52.516;13.508;2022-11-30T12:28:46;65.75;;;30.88;;
69822;SDS011;57119;52.516;13.508;2022-11-30T12:31:54;71.25;;;32.78;;
69822;SDS011;57119;52.516;13.508;2022-11-30T12:37:06;70.50;;;30.13;;
69822;SDS011;57119;52.516;13.508;2022-11-30T12:39:41;65.57;;;30.13;;
69822;SDS011;57119;52.516;13.508;2022-11-30T12:42:17;69.13;;;31.08;;
69822;SDS011;57119;52.516;13.508;2022-11-30T12:50:52;64.38;;;29.15;;
69822;SDS011;57119;52.516;13.508;2022-11-30T13:04:15;64.28;;;27.67;;
69822;SDS011;57119;52.516;13.508;2022-11-30T13:07:18;60.77;;;26.20;;
69822;SDS011;57119;52.516;13.508;2022-11-30T13:09:59;66.32;;;29.00;;
69822;SDS011;57119;52.516;13.508;2022-11-30T13:12:34;60.80;;;26.30;;
69822;SDS011;57119;52.516;13.508;2022-11-30T13:15:05;65.57;;;29.38;;
69822;SDS011;57119;52.516;13.508;2022-11-30T13:17:51;60.55;;;27.25;;
69822;SDS011;57119;52.516;13.508;2022-11-30T13:23:08;62.50;;;28.30;;
69822;SDS011;57119;52.516;13.508;2022-11-30T13:39:09;66.32;;;30.27;;
69822;SDS011;57119;52.516;13.508;2022-11-30T13:41:44;78.15;;;31.73;;
69822;SDS011;57119;52.516;13.508;2022-11-30T13:44:28;80.22;;;31.25;;
69822;SDS011;57119;52.516;13.508;2022-11-30T13:46:57;71.93;;;29.23;;
69822;SDS011;57119;52.516;13.508;2022-11-30T13:49:44;75.65;;;30.42;;
69822;SDS011;57119;52.516;13.508;2022-11-30T13:52:13;79.88;;;30.58;;
69822;SDS011;57119;52.516;13.508;2022-11-30T13:54:43;80.80;;;30.35;;
69822;SDS011;57119;52.516;13.508;2022-11-30T13:59:54;74.97;;;29.20;;
69822;SDS011;57119;52.516;13.508;2022-11-30T14:07:42;94.43;;;33.38;;
69822;SDS011;57119;52.516;13.508;2022-11-30T14:12:58;93.67;;;31.87;;
69822;SDS011;57119;52.516;13.508;2022-11-30T14:15:50;90.32;;;32.47;;
69822;SDS011;57119;52.516;13.508;2022-11-30T14:18:57;90.15;;;31.52;;
69822;SDS011;57119;52.516;13.508;2022-11-30T14:21:28;87.47;;;32.50;;
69822;SDS011;57119;52.516;13.508;2022-11-30T14:24:01;84.32;;;31.08;;
69822;SDS011;57119;52.516;13.508;2022-11-30T14:26:35;93.40;;;31.87;;
69822;SDS011;57119;52.516;13.508;2022-11-30T14:36:55;93.70;;;33.78;;
69822;SDS011;57119;52.516;13.508;2022-11-30T14:39:26;90.27;;;31.70;;
69822;SDS011;57119;52.516;13.508;2022-11-30T14:42:03;88.28;;;30.55;;
69822;SDS011;57119;52.516;13.508;2022-11-30T14:44:33;88.95;;;31.70;;
69822;SDS011;57119;52.516;13.508;2022-11-30T14:47:13;85.57;;;28.02;;
69822;SDS011;57119;52.516;13.508;2022-11-30T14:49:45;81.82;;;28.50;;
69822;SDS011;57119;52.516;13.508;2022-11-30T14:52:12;76.37;;;26.67;;
69822;SDS011;57119;52.516;13.508;2022-11-30T14:54:45;79.10;;;28.83;;
69822;SDS011;57119;52.516;13.508;2022-11-30T14:57:31;84.25;;;27.98;;
69822;SDS011;57119;52.516;13.508;2022-11-30T15:00:03;83.97;;;27.40;;
69822;SDS011;57119;52.516;13.508;2022-11-30T15:02:33;79.03;;;28.08;;
69822;SDS011;57119;52.516;13.508;2022-11-30T15:05:03;85.07;;;28.60;;
69822;SDS011;57119;52.516;13.508;2022-11-30T15:07:33;87.93;;;30.15;;
69822;SDS011;57119;52.516;13.508;2022-11-30T15:10:07;87.70;;;26.98;;
69822;SDS011;57119;52.516;13.508;2022-11-30T15:12:36;89.13;;;28.10;;
69822;SDS011;57119;52.516;13.508;2022-11-30T15:17:57;86.10;;;27.43;;
69822;SDS011;57119;52.516;13.508;2022-11-30T15:20:38;80.85;;;25.92;;
69822;SDS011;57119;52.516;13.508;2022-11-30T15:23:11;89.78;;;28.27;;
69822;SDS011;57119;52.516;13.508;2022-11-30T15:25:48;84.07;;;26.80;;
69822;SDS011;57119;52.516;13.508;2022-11-30T15:28:26;90.28;;;28.35;;
69822;SDS011;57119;52.516;13.508;2022-11-30T15:31:06;82.13;;;26.60;;
69822;SDS011;57119;52.516;13.508;2022-11-30T15:33:38;89.65;;;28.90;;
69822;SDS011;57119;52.516;13.508;2022-11-30T15:36:06;96.65;;;29.80;;
69822;SDS011;57119;52.516;13.508;2022-11-30T15:38:32;81.55;;;27.58;;
69822;SDS011;57119;52.516;13.508;2022-11-30T15:41:02;90.30;;;27.67;;
69822;SDS011;57119;52.516;13.508;2022-11-30T15:43:55;97.07;;;27.13;;
69822;SDS011;57119;52.516;13.508;2022-11-30T15:51:41;87.25;;;26.58;;
69822;SDS011;57119;52.516;13.508;2022-11-30T15:54:09;87.33;;;27.87;;
69822;SDS011;57119;52.516;13.508;2022-11-30T15:56:34;91.60;;;27.70;;
69822;SDS011;57119;52.516;13.508;2022-11-30T15:59:01;89.57;;;29.03;;
69822;SDS011;57119;52.516;13.508;2022-11-30T16:01:27;92.60;;;30.40;;
69822;SDS011;57119;52.516;13.508;2022-11-30T16:06:19;84.73;;;27.30;;
69822;SDS011;57119;52.516;13.508;2022-11-30T16:08:46;89.30;;;26.23;;
69822;SDS011;57119;52.516;13.508;2022-11-30T16:11:13;93.82;;;29.42;;
69822;SDS011;57119;52.516;13.508;2022-11-30T16:13:38;94.33;;;28.03;;
69822;SDS011;57119;52.516;13.508;2022-11-30T16:16:09;81.28;;;28.73;;
69822;SDS011;57119;52.516;13.508;2022-11-30T16:18:36;94.65;;;28.17;;
69822;SDS011;57119;52.516;13.508;2022-11-30T16:21:02;92.88;;;28.20;;
69822;SDS011;57119;52.516;13.508;2022-11-30T16:23:28;90.13;;;27.67;;
69822;SDS011;57119;52.516;13.508;2022-11-30T16:25:54;89.10;;;28.33;;
69822;SDS011;57119;52.516;13.508;2022-11-30T16:28:20;83.13;;;27.55;;
69822;SDS011;57119;52.516;13.508;2022-11-30T16:30:47;81.78;;;27.08;;
69822;SDS011;57119;52.516;13.508;2022-11-30T16:33:17;82.57;;;25.13;;
69822;SDS011;57119;52.516;13.508;2022-11-30T16:35:57;84.57;;;26.23;;
69822;SDS011;57119;52.516;13.508;2022-11-30T16:38:26;87.93;;;25.98;;